sensor_id;sensor_type;location;lat;lon;timestamp;P1;durP1;ratioP1;P2;durP2;ratioP2
209;SDS011;90;48.810;9.120;2022-09-09T00:01:57;5.40;;;2.60;;
209;SDS011;90;48.810;9.120;2022-09-09T00:04:31;5.87;;;2.50;;
209;SDS011;90;48.810;9.120;2022-09-09T00:07:01;4.20;;;2.60;;
209;SDS011;90;48.810;9.120;2022-09-09T00:09:32;10.63;;;2.90;;
209;SDS011;90;48.810;9.120;2022-09-09T00:12:08;5.50;;;2.70;;
209;SDS011;90;48.810;9.120;2022-09-09T00:14:42;5.50;;;2.80;;
209;SDS011;90;48.810;9.120;2022-09-09T00:17:18;2.90;;;2.30;;
209;SDS011;90;48.810;9.120;2022-09-09T00:19:56;6.83;;;2.63;;
209;SDS011;90;48.810;9.120;2022-09-09T00:22:29;6.80;;;2.73;;
209;SDS011;90;48.810;9.120;2022-09-09T00:24:58;4.70;;;2.40;;
209;SDS011;90;48.810;9.120;2022-09-09T00:27:37;4.03;;;3.03;;
209;SDS011;90;48.810;9.120;2022-09-09T00:30:14;4.40;;;2.60;;
209;SDS011;90;48.810;9.120;2022-09-09T00:32:45;4.40;;;2.50;;
209;SDS011;90;48.810;9.120;2022-09-09T00:35:17;5.73;;;2.77;;
209;SDS011;90;48.810;9.120;2022-09-09T00:37:50;2.77;;;2.57;;
209;SDS011;90;48.810;9.120;2022-09-09T00:40:22;4.43;;;2.20;;
209;SDS011;90;48.810;9.120;2022-09-09T00:43:01;7.10;;;2.27;;
209;SDS011;90;48.810;9.120;2022-09-09T00:48:52;7.30;;;2.50;;
209;SDS011;90;48.810;9.120;2022-09-09T00:51:29;8.27;;;2.27;;
209;SDS011;90;48.810;9.120;2022-09-09T00:54:16;14.93;;;2.93;;
209;SDS011;90;48.810;9.120;2022-09-09T00:56:54;2.35;;;2.10;;
209;SDS011;90;48.810;9.120;2022-09-09T00:59:32;4.07;;;2.30;;
209;SDS011;90;48.810;9.120;2022-09-09T01:02:08;4.63;;;2.17;;
209;SDS011;90;48.810;9.120;2022-09-09T01:04:42;4.00;;;2.87;;
209;SDS011;90;48.810;9.120;2022-09-09T01:07:11;5.70;;;2.80;;
209;SDS011;90;48.810;9.120;2022-09-09T01:09:45;2.70;;;2.50;;
209;SDS011;90;48.810;9.120;2022-09-09T01:12:23;3.50;;;2.57;;
209;SDS011;90;48.810;9.120;2022-09-09T01:14:56;3.13;;;2.53;;
209;SDS011;90;48.810;9.120;2022-09-09T01:17:31;8.73;;;2.60;;
209;SDS011;90;48.810;9.120;2022-09-09T01:20:03;2.80;;;2.60;;
209;SDS011;90;48.810;9.120;2022-09-09T01:22:37;4.30;;;2.63;;
209;SDS011;90;48.810;9.120;2022-09-09T01:28:00;7.40;;;2.63;;
209;SDS011;90;48.810;9.120;2022-09-09T01:30:31;2.70;;;2.53;;
209;SDS011;90;48.810;9.120;2022-09-09T01:33:00;6.00;;;2.63;;
209;SDS011;90;48.810;9.120;2022-09-09T01:35:38;3.80;;;2.43;;
209;SDS011;90;48.810;9.120;2022-09-09T01:38:09;10.20;;;2.63;;
209;SDS011;90;48.810;9.120;2022-09-09T01:40:37;6.10;;;2.33;;
209;SDS011;90;48.810;9.120;2022-09-09T01:43:06;3.23;;;2.40;;
209;SDS011;90;48.810;9.120;2022-09-09T01:45:33;5.80;;;2.70;;
209;SDS011;90;48.810;9.120;2022-09-09T01:48:01;2.90;;;2.43;;
209;SDS011;90;48.810;9.120;2022-09-09T01:50:28;2.50;;;2.30;;
209;SDS011;90;48.810;9.120;2022-09-09T01:52:56;5.50;;;2.70;;
209;SDS011;90;48.810;9.120;2022-09-09T01:55:28;2.87;;;2.33;;
209;SDS011;90;48.810;9.120;2022-09-09T01:58:01;3.43;;;3.00;;
209;SDS011;90;48.810;9.120;2022-09-09T02:00:41;2.60;;;2.23;;
209;SDS011;90;48.810;9.120;2022-09-09T02:03:18;3.47;;;2.70;;
209;SDS011;90;48.810;9.120;2022-09-09T02:05:51;2.73;;;2.33;;
209;SDS011;90;48.810;9.120;2022-09-09T02:08:31;5.23;;;2.73;;
209;SDS011;90;48.810;9.120;2022-09-09T02:11:07;2.93;;;2.50;;
209;SDS011;90;48.810;9.120;2022-09-09T02:13:39;4.40;;;1.90;;
209;SDS011;90;48.810;9.120;2022-09-09T02:16:07;5.93;;;2.50;;
209;SDS011;90;48.810;9.120;2022-09-09T02:18:40;2.93;;;1.97;;
209;SDS011;90;48.810;9.120;2022-09-09T02:21:14;4.33;;;2.20;;
209;SDS011;90;48.810;9.120;2022-09-09T02:23:43;4.60;;;2.30;;
209;SDS011;90;48.810;9.120;2022-09-09T02:26:13;3.17;;;2.17;;
209;SDS011;90;48.810;9.120;2022-09-09T02:28:47;3.00;;;2.20;;
209;SDS011;90;48.810;9.120;2022-09-09T02:31:20;2.80;;;1.93;;
209;SDS011;90;48.810;9.120;2022-09-09T02:33:51;3.73;;;2.00;;
209;SDS011;90;48.810;9.120;2022-09-09T02:36:23;3.70;;;2.33;;
209;SDS011;90;48.810;9.120;2022-09-09T02:38:54;2.30;;;1.90;;
209;SDS011;90;48.810;9.120;2022-09-09T02:41:23;2.90;;;1.90;;
209;SDS011;90;48.810;9.120;2022-09-09T02:43:55;2.30;;;2.00;;
209;SDS011;90;48.810;9.120;2022-09-09T02:46:27;3.47;;;2.00;;
209;SDS011;90;48.810;9.120;2022-09-09T02:49:11;3.40;;;1.70;;
209;SDS011;90;48.810;9.120;2022-09-09T02:51:48;2.50;;;1.63;;
209;SDS011;90;48.810;9.120;2022-09-09T02:54:24;2.93;;;1.70;;
209;SDS011;90;48.810;9.120;2022-09-09T02:56:56;3.90;;;2.03;;
209;SDS011;90;48.810;9.120;2022-09-09T02:59:30;4.50;;;2.07;;
209;SDS011;90;48.810;9.120;2022-09-09T03:01:57;3.27;;;2.30;;
209;SDS011;90;48.810;9.120;2022-09-09T03:04:24;2.77;;;1.93;;
209;SDS011;90;48.810;9.120;2022-09-09T03:06:51;2.10;;;1.90;;
209;SDS011;90;48.810;9.120;2022-09-09T03:09:21;3.67;;;2.30;;
209;SDS011;90;48.810;9.120;2022-09-09T03:11:48;2.87;;;1.83;;
209;SDS011;90;48.810;9.120;2022-09-09T03:14:17;2.00;;;1.70;;
209;SDS011;90;48.810;9.120;2022-09-09T03:16:51;2.80;;;1.97;;
209;SDS011;90;48.810;9.120;2022-09-09T03:19:18;2.53;;;2.30;;
209;SDS011;90;48.810;9.120;2022-09-09T03:21:46;5.43;;;1.87;;
209;SDS011;90;48.810;9.120;2022-09-09T03:24:14;4.27;;;1.80;;
209;SDS011;90;48.810;9.120;2022-09-09T03:26:42;2.10;;;1.67;;
209;SDS011;90;48.810;9.120;2022-09-09T03:29:13;2.40;;;1.97;;
209;SDS011;90;48.810;9.120;2022-09-09T03:31:40;2.73;;;1.83;;
209;SDS011;90;48.810;9.120;2022-09-09T03:34:09;3.80;;;1.90;;
209;SDS011;90;48.810;9.120;2022-09-09T03:36:36;3.90;;;1.90;;
209;SDS011;90;48.810;9.120;2022-09-09T03:39:03;3.13;;;1.70;;
209;SDS011;90;48.810;9.120;2022-09-09T03:41:31;7.37;;;2.10;;
209;SDS011;90;48.810;9.120;2022-09-09T03:43:59;2.53;;;1.90;;
209;SDS011;90;48.810;9.120;2022-09-09T03:46:26;2.13;;;1.97;;
209;SDS011;90;48.810;9.120;2022-09-09T03:48:53;5.70;;;1.80;;
209;SDS011;90;48.810;9.120;2022-09-09T03:51:22;2.20;;;1.53;;
209;SDS011;90;48.810;9.120;2022-09-09T03:53:49;3.63;;;1.80;;
209;SDS011;90;48.810;9.120;2022-09-09T03:56:16;2.67;;;1.80;;
209;SDS011;90;48.810;9.120;2022-09-09T03:58:43;4.00;;;1.77;;
209;SDS011;90;48.810;9.120;2022-09-09T04:01:11;2.50;;;1.80;;
209;SDS011;90;48.810;9.120;2022-09-09T04:03:39;2.00;;;1.60;;
209;SDS011;90;48.810;9.120;2022-09-09T04:06:07;2.33;;;2.10;;
209;SDS011;90;48.810;9.120;2022-09-09T04:08:38;2.10;;;1.60;;
209;SDS011;90;48.810;9.120;2022-09-09T04:11:05;2.73;;;1.70;;
209;SDS011;90;48.810;9.120;2022-09-09T04:13:32;3.07;;;1.80;;
209;SDS011;90;48.810;9.120;2022-09-09T04:16:00;2.57;;;1.83;;
209;SDS011;90;48.810;9.120;2022-09-09T04:18:29;3.70;;;2.07;;
209;SDS011;90;48.810;9.120;2022-09-09T04:20:57;3.38;;;1.83;;
209;SDS011;90;48.810;9.120;2022-09-09T04:23:24;3.33;;;2.40;;
209;SDS011;90;48.810;9.120;2022-09-09T04:25:56;4.30;;;2.20;;
209;SDS011;90;48.810;9.120;2022-09-09T04:28:26;3.90;;;2.00;;
209;SDS011;90;48.810;9.120;2022-09-09T04:30:55;2.97;;;2.10;;
209;SDS011;90;48.810;9.120;2022-09-09T04:33:23;6.00;;;1.83;;
209;SDS011;90;48.810;9.120;2022-09-09T04:35:52;3.50;;;2.10;;
209;SDS011;90;48.810;9.120;2022-09-09T04:38:20;3.07;;;2.10;;
209;SDS011;90;48.810;9.120;2022-09-09T04:40:49;4.40;;;2.07;;
209;SDS011;90;48.810;9.120;2022-09-09T04:43:20;4.10;;;2.30;;
209;SDS011;90;48.810;9.120;2022-09-09T04:45:48;6.27;;;2.20;;
209;SDS011;90;48.810;9.120;2022-09-09T04:48:17;5.60;;;2.40;;
209;SDS011;90;48.810;9.120;2022-09-09T04:50:44;9.13;;;2.40;;
209;SDS011;90;48.810;9.120;2022-09-09T04:53:20;4.77;;;1.90;;
209;SDS011;90;48.810;9.120;2022-09-09T04:55:47;2.27;;;1.90;;
209;SDS011;90;48.810;9.120;2022-09-09T04:58:15;3.43;;;2.20;;
209;SDS011;90;48.810;9.120;2022-09-09T05:00:43;3.93;;;2.07;;
209;SDS011;90;48.810;9.120;2022-09-09T05:03:11;3.60;;;2.40;;
209;SDS011;90;48.810;9.120;2022-09-09T05:05:38;2.40;;;1.93;;
209;SDS011;90;48.810;9.120;2022-09-09T05:08:06;3.40;;;2.20;;
209;SDS011;90;48.810;9.120;2022-09-09T05:10:36;2.30;;;1.97;;
209;SDS011;90;48.810;9.120;2022-09-09T05:13:04;4.63;;;2.40;;
209;SDS011;90;48.810;9.120;2022-09-09T05:15:32;2.87;;;2.50;;
209;SDS011;90;48.810;9.120;2022-09-09T05:18:02;4.03;;;2.67;;
209;SDS011;90;48.810;9.120;2022-09-09T05:20:29;4.27;;;2.20;;
209;SDS011;90;48.810;9.120;2022-09-09T05:22:56;3.67;;;2.03;;
209;SDS011;90;48.810;9.120;2022-09-09T05:25:23;2.53;;;2.00;;
209;SDS011;90;48.810;9.120;2022-09-09T05:27:51;4.20;;;2.17;;
209;SDS011;90;48.810;9.120;2022-09-09T05:30:20;3.50;;;2.10;;
209;SDS011;90;48.810;9.120;2022-09-09T05:32:48;3.10;;;2.50;;
209;SDS011;90;48.810;9.120;2022-09-09T05:35:16;5.70;;;2.37;;
209;SDS011;90;48.810;9.120;2022-09-09T05:37:44;2.10;;;1.90;;
209;SDS011;90;48.810;9.120;2022-09-09T05:40:11;2.10;;;1.80;;
209;SDS011;90;48.810;9.120;2022-09-09T05:42:41;3.37;;;2.10;;
209;SDS011;90;48.810;9.120;2022-09-09T05:45:08;2.50;;;1.93;;
209;SDS011;90;48.810;9.120;2022-09-09T05:47:36;2.80;;;1.90;;
209;SDS011;90;48.810;9.120;2022-09-09T05:50:04;4.47;;;2.20;;
209;SDS011;90;48.810;9.120;2022-09-09T05:52:33;2.47;;;2.13;;
209;SDS011;90;48.810;9.120;2022-09-09T05:55:00;3.17;;;2.00;;
209;SDS011;90;48.810;9.120;2022-09-09T05:57:29;2.73;;;1.80;;
209;SDS011;90;48.810;9.120;2022-09-09T05:59:56;4.40;;;1.90;;
209;SDS011;90;48.810;9.120;2022-09-09T06:02:23;5.93;;;2.43;;
209;SDS011;90;48.810;9.120;2022-09-09T06:04:50;6.73;;;2.00;;
209;SDS011;90;48.810;9.120;2022-09-09T06:07:17;3.03;;;2.03;;
209;SDS011;90;48.810;9.120;2022-09-09T06:09:46;4.67;;;2.27;;
209;SDS011;90;48.810;9.120;2022-09-09T06:12:13;2.80;;;1.97;;
209;SDS011;90;48.810;9.120;2022-09-09T06:14:40;4.33;;;2.30;;
209;SDS011;90;48.810;9.120;2022-09-09T06:17:08;4.77;;;1.93;;
209;SDS011;90;48.810;9.120;2022-09-09T06:19:35;6.23;;;2.13;;
209;SDS011;90;48.810;9.120;2022-09-09T06:22:02;2.67;;;2.17;;
209;SDS011;90;48.810;9.120;2022-09-09T06:24:30;4.40;;;2.40;;
209;SDS011;90;48.810;9.120;2022-09-09T06:26:59;6.10;;;2.50;;
209;SDS011;90;48.810;9.120;2022-09-09T06:29:26;6.50;;;2.50;;
209;SDS011;90;48.810;9.120;2022-09-09T06:31:53;3.80;;;2.50;;
209;SDS011;90;48.810;9.120;2022-09-09T06:34:20;3.40;;;2.50;;
209;SDS011;90;48.810;9.120;2022-09-09T06:36:48;3.47;;;2.53;;
209;SDS011;90;48.810;9.120;2022-09-09T06:39:16;2.70;;;2.50;;
209;SDS011;90;48.810;9.120;2022-09-09T06:41:43;3.77;;;2.63;;
209;SDS011;90;48.810;9.120;2022-09-09T06:44:11;6.20;;;3.03;;
209;SDS011;90;48.810;9.120;2022-09-09T06:46:40;2.73;;;2.53;;
209;SDS011;90;48.810;9.120;2022-09-09T06:49:13;4.57;;;2.80;;
209;SDS011;90;48.810;9.120;2022-09-09T06:51:40;3.70;;;2.67;;
209;SDS011;90;48.810;9.120;2022-09-09T06:54:10;4.40;;;3.10;;
209;SDS011;90;48.810;9.120;2022-09-09T06:56:43;4.60;;;2.73;;
209;SDS011;90;48.810;9.120;2022-09-09T06:59:12;3.13;;;2.33;;
209;SDS011;90;48.810;9.120;2022-09-09T07:01:40;3.60;;;2.60;;
209;SDS011;90;48.810;9.120;2022-09-09T07:04:08;4.10;;;2.57;;
209;SDS011;90;48.810;9.120;2022-09-09T07:06:37;5.40;;;2.00;;
209;SDS011;90;48.810;9.120;2022-09-09T07:09:09;4.87;;;2.60;;
209;SDS011;90;48.810;9.120;2022-09-09T07:11:38;2.50;;;2.40;;
209;SDS011;90;48.810;9.120;2022-09-09T07:14:07;4.83;;;2.40;;
209;SDS011;90;48.810;9.120;2022-09-09T07:16:35;2.87;;;2.50;;
209;SDS011;90;48.810;9.120;2022-09-09T07:19:03;5.17;;;2.80;;
209;SDS011;90;48.810;9.120;2022-09-09T07:21:31;2.80;;;2.60;;
209;SDS011;90;48.810;9.120;2022-09-09T07:23:59;4.33;;;2.93;;
209;SDS011;90;48.810;9.120;2022-09-09T07:26:27;3.40;;;2.53;;
209;SDS011;90;48.810;9.120;2022-09-09T07:28:56;2.80;;;2.27;;
209;SDS011;90;48.810;9.120;2022-09-09T07:31:24;2.90;;;2.80;;
209;SDS011;90;48.810;9.120;2022-09-09T07:33:55;3.23;;;2.20;;
209;SDS011;90;48.810;9.120;2022-09-09T07:36:26;3.60;;;2.60;;
209;SDS011;90;48.810;9.120;2022-09-09T07:38:55;4.23;;;2.40;;
209;SDS011;90;48.810;9.120;2022-09-09T07:41:24;3.43;;;2.13;;
209;SDS011;90;48.810;9.120;2022-09-09T07:43:53;5.53;;;2.60;;
209;SDS011;90;48.810;9.120;2022-09-09T07:46:21;3.20;;;2.60;;
209;SDS011;90;48.810;9.120;2022-09-09T07:48:50;4.90;;;2.47;;
209;SDS011;90;48.810;9.120;2022-09-09T07:51:21;3.60;;;2.53;;
209;SDS011;90;48.810;9.120;2022-09-09T07:53:52;3.93;;;2.57;;
209;SDS011;90;48.810;9.120;2022-09-09T07:56:20;3.20;;;2.37;;
209;SDS011;90;48.810;9.120;2022-09-09T07:58:50;6.27;;;2.70;;
209;SDS011;90;48.810;9.120;2022-09-09T08:01:18;6.60;;;2.17;;
209;SDS011;90;48.810;9.120;2022-09-09T08:03:52;6.23;;;2.10;;
209;SDS011;90;48.810;9.120;2022-09-09T08:06:26;7.63;;;2.43;;
209;SDS011;90;48.810;9.120;2022-09-09T08:08:54;3.13;;;2.40;;
209;SDS011;90;48.810;9.120;2022-09-09T08:11:22;3.60;;;2.10;;
209;SDS011;90;48.810;9.120;2022-09-09T08:13:51;2.63;;;2.47;;
209;SDS011;90;48.810;9.120;2022-09-09T08:16:29;3.77;;;2.33;;
209;SDS011;90;48.810;9.120;2022-09-09T08:19:02;7.77;;;2.63;;
209;SDS011;90;48.810;9.120;2022-09-09T08:21:32;2.70;;;2.07;;
209;SDS011;90;48.810;9.120;2022-09-09T08:24:01;2.70;;;2.53;;
209;SDS011;90;48.810;9.120;2022-09-09T08:26:30;7.23;;;2.63;;
209;SDS011;90;48.810;9.120;2022-09-09T08:29:00;3.20;;;2.43;;
209;SDS011;90;48.810;9.120;2022-09-09T08:31:32;3.90;;;2.90;;
209;SDS011;90;48.810;9.120;2022-09-09T08:34:00;3.00;;;2.53;;
209;SDS011;90;48.810;9.120;2022-09-09T08:36:30;4.47;;;2.47;;
209;SDS011;90;48.810;9.120;2022-09-09T08:39:00;3.47;;;3.27;;
209;SDS011;90;48.810;9.120;2022-09-09T08:41:30;7.60;;;2.93;;
209;SDS011;90;48.810;9.120;2022-09-09T08:44:19;5.50;;;3.00;;
209;SDS011;90;48.810;9.120;2022-09-09T08:46:56;4.00;;;2.60;;
209;SDS011;90;48.810;9.120;2022-09-09T08:49:44;6.23;;;2.50;;
209;SDS011;90;48.810;9.120;2022-09-09T08:52:28;5.40;;;2.70;;
209;SDS011;90;48.810;9.120;2022-09-09T08:55:02;5.93;;;2.60;;
209;SDS011;90;48.810;9.120;2022-09-09T08:57:38;4.20;;;2.60;;
209;SDS011;90;48.810;9.120;2022-09-09T09:00:07;6.27;;;2.67;;
209;SDS011;90;48.810;9.120;2022-09-09T09:02:38;8.50;;;3.47;;
209;SDS011;90;48.810;9.120;2022-09-09T09:05:17;6.77;;;2.87;;
209;SDS011;90;48.810;9.120;2022-09-09T09:07:56;5.43;;;3.10;;
209;SDS011;90;48.810;9.120;2022-09-09T09:10:38;5.17;;;3.00;;
209;SDS011;90;48.810;9.120;2022-09-09T09:13:13;7.10;;;3.00;;
209;SDS011;90;48.810;9.120;2022-09-09T09:15:43;5.33;;;3.47;;
209;SDS011;90;48.810;9.120;2022-09-09T09:18:13;6.00;;;3.13;;
209;SDS011;90;48.810;9.120;2022-09-09T09:20:49;4.97;;;3.27;;
209;SDS011;90;48.810;9.120;2022-09-09T09:23:29;7.80;;;3.20;;
209;SDS011;90;48.810;9.120;2022-09-09T09:26:22;6.60;;;3.37;;
209;SDS011;90;48.810;9.120;2022-09-09T09:28:55;4.97;;;3.90;;
209;SDS011;90;48.810;9.120;2022-09-09T09:31:25;6.80;;;3.07;;
209;SDS011;90;48.810;9.120;2022-09-09T09:33:53;5.27;;;2.67;;
209;SDS011;90;48.810;9.120;2022-09-09T09:36:25;5.63;;;2.90;;
209;SDS011;90;48.810;9.120;2022-09-09T09:39:02;7.80;;;2.73;;
209;SDS011;90;48.810;9.120;2022-09-09T09:41:31;3.37;;;2.90;;
209;SDS011;90;48.810;9.120;2022-09-09T09:44:00;5.43;;;3.50;;
209;SDS011;90;48.810;9.120;2022-09-09T09:46:28;4.77;;;2.60;;
209;SDS011;90;48.810;9.120;2022-09-09T09:48:59;2.80;;;2.60;;
209;SDS011;90;48.810;9.120;2022-09-09T09:51:27;6.33;;;2.50;;
209;SDS011;90;48.810;9.120;2022-09-09T09:54:08;2.60;;;2.40;;
209;SDS011;90;48.810;9.120;2022-09-09T09:56:41;3.00;;;2.80;;
209;SDS011;90;48.810;9.120;2022-09-09T09:59:19;2.60;;;2.40;;
209;SDS011;90;48.810;9.120;2022-09-09T10:01:48;5.40;;;3.03;;
209;SDS011;90;48.810;9.120;2022-09-09T10:04:15;2.60;;;2.40;;
209;SDS011;90;48.810;9.120;2022-09-09T10:06:45;3.57;;;2.50;;
209;SDS011;90;48.810;9.120;2022-09-09T10:09:22;3.47;;;2.40;;
209;SDS011;90;48.810;9.120;2022-09-09T10:11:53;3.20;;;2.60;;
209;SDS011;90;48.810;9.120;2022-09-09T10:14:28;3.27;;;2.60;;
209;SDS011;90;48.810;9.120;2022-09-09T10:17:02;2.90;;;2.70;;
209;SDS011;90;48.810;9.120;2022-09-09T10:19:42;4.20;;;3.47;;
209;SDS011;90;48.810;9.120;2022-09-09T10:22:24;3.10;;;2.90;;
209;SDS011;90;48.810;9.120;2022-09-09T10:25:07;3.97;;;2.57;;
209;SDS011;90;48.810;9.120;2022-09-09T10:27:51;3.70;;;2.70;;
209;SDS011;90;48.810;9.120;2022-09-09T10:30:39;5.27;;;3.00;;
209;SDS011;90;48.810;9.120;2022-09-09T10:33:16;8.73;;;2.80;;
209;SDS011;90;48.810;9.120;2022-09-09T10:35:53;7.37;;;2.73;;
209;SDS011;90;48.810;9.120;2022-09-09T10:38:32;3.90;;;2.73;;
209;SDS011;90;48.810;9.120;2022-09-09T10:46:52;4.10;;;2.70;;
209;SDS011;90;48.810;9.120;2022-09-09T10:49:40;3.13;;;2.90;;
209;SDS011;90;48.810;9.120;2022-09-09T10:52:22;2.83;;;2.63;;
209;SDS011;90;48.810;9.120;2022-09-09T10:54:57;2.90;;;2.60;;
209;SDS011;90;48.810;9.120;2022-09-09T10:57:33;4.80;;;2.63;;
209;SDS011;90;48.810;9.120;2022-09-09T11:00:04;4.40;;;3.00;;
209;SDS011;90;48.810;9.120;2022-09-09T11:02:34;3.20;;;3.00;;
209;SDS011;90;48.810;9.120;2022-09-09T11:05:02;4.90;;;3.00;;
209;SDS011;90;48.810;9.120;2022-09-09T11:07:34;3.57;;;2.83;;
209;SDS011;90;48.810;9.120;2022-09-09T11:10:07;5.50;;;3.07;;
209;SDS011;90;48.810;9.120;2022-09-09T11:12:46;2.90;;;2.50;;
209;SDS011;90;48.810;9.120;2022-09-09T11:15:18;3.60;;;3.03;;
209;SDS011;90;48.810;9.120;2022-09-09T11:17:49;5.93;;;2.40;;
209;SDS011;90;48.810;9.120;2022-09-09T11:20:20;2.93;;;2.63;;
209;SDS011;90;48.810;9.120;2022-09-09T11:22:50;3.90;;;2.30;;
209;SDS011;90;48.810;9.120;2022-09-09T11:25:22;7.10;;;2.63;;
209;SDS011;90;48.810;9.120;2022-09-09T11:27:59;6.47;;;2.63;;
209;SDS011;90;48.810;9.120;2022-09-09T11:30:50;2.85;;;1.70;;
209;SDS011;90;48.810;9.120;2022-09-09T11:33:34;2.43;;;2.10;;
209;SDS011;90;48.810;9.120;2022-09-09T11:36:24;3.77;;;1.77;;
209;SDS011;90;48.810;9.120;2022-09-09T11:39:18;3.00;;;1.90;;
209;SDS011;90;48.810;9.120;2022-09-09T11:42:06;2.63;;;1.67;;
209;SDS011;90;48.810;9.120;2022-09-09T11:44:43;3.20;;;1.93;;
209;SDS011;90;48.810;9.120;2022-09-09T11:47:15;2.57;;;1.93;;
209;SDS011;90;48.810;9.120;2022-09-09T11:49:49;4.47;;;1.97;;
209;SDS011;90;48.810;9.120;2022-09-09T11:52:20;2.10;;;2.00;;
209;SDS011;90;48.810;9.120;2022-09-09T11:54:50;2.10;;;1.63;;
209;SDS011;90;48.810;9.120;2022-09-09T11:57:23;2.20;;;2.00;;
209;SDS011;90;48.810;9.120;2022-09-09T11:59:57;3.03;;;1.80;;
209;SDS011;90;48.810;9.120;2022-09-09T12:02:26;2.20;;;2.00;;
209;SDS011;90;48.810;9.120;2022-09-09T12:04:58;2.67;;;1.70;;
209;SDS011;90;48.810;9.120;2022-09-09T12:07:32;2.63;;;1.60;;
209;SDS011;90;48.810;9.120;2022-09-09T12:10:04;3.33;;;2.20;;
209;SDS011;90;48.810;9.120;2022-09-09T12:12:45;2.73;;;2.63;;
209;SDS011;90;48.810;9.120;2022-09-09T12:15:21;2.20;;;2.00;;
209;SDS011;90;48.810;9.120;2022-09-09T12:17:53;3.70;;;2.00;;
209;SDS011;90;48.810;9.120;2022-09-09T12:20:26;2.73;;;1.90;;
209;SDS011;90;48.810;9.120;2022-09-09T12:23:21;2.00;;;1.43;;
209;SDS011;90;48.810;9.120;2022-09-09T12:25:58;3.50;;;2.50;;
209;SDS011;90;48.810;9.120;2022-09-09T12:28:44;2.07;;;1.93;;
209;SDS011;90;48.810;9.120;2022-09-09T12:31:21;3.57;;;2.80;;
209;SDS011;90;48.810;9.120;2022-09-09T12:33:53;3.43;;;2.10;;
209;SDS011;90;48.810;9.120;2022-09-09T12:36:21;2.27;;;2.07;;
209;SDS011;90;48.810;9.120;2022-09-09T12:38:52;3.23;;;2.20;;
209;SDS011;90;48.810;9.120;2022-09-09T12:41:22;2.37;;;2.20;;
209;SDS011;90;48.810;9.120;2022-09-09T12:43:51;2.73;;;1.73;;
209;SDS011;90;48.810;9.120;2022-09-09T12:46:33;2.30;;;2.00;;
209;SDS011;90;48.810;9.120;2022-09-09T12:49:02;2.47;;;2.03;;
209;SDS011;90;48.810;9.120;2022-09-09T12:51:32;2.60;;;2.20;;
209;SDS011;90;48.810;9.120;2022-09-09T12:54:01;5.70;;;2.40;;
209;SDS011;90;48.810;9.120;2022-09-09T12:56:30;3.90;;;2.10;;
209;SDS011;90;48.810;9.120;2022-09-09T12:59:00;7.40;;;2.47;;
209;SDS011;90;48.810;9.120;2022-09-09T13:01:28;2.73;;;2.53;;
209;SDS011;90;48.810;9.120;2022-09-09T13:03:59;4.50;;;2.60;;
209;SDS011;90;48.810;9.120;2022-09-09T13:06:27;4.40;;;2.30;;
209;SDS011;90;48.810;9.120;2022-09-09T13:08:56;4.83;;;2.20;;
209;SDS011;90;48.810;9.120;2022-09-09T13:11:25;2.37;;;2.23;;
209;SDS011;90;48.810;9.120;2022-09-09T13:13:55;3.20;;;2.17;;
209;SDS011;90;48.810;9.120;2022-09-09T13:16:25;4.00;;;2.17;;
209;SDS011;90;48.810;9.120;2022-09-09T13:18:55;5.73;;;2.30;;
209;SDS011;90;48.810;9.120;2022-09-09T13:21:32;2.30;;;2.10;;
209;SDS011;90;48.810;9.120;2022-09-09T13:24:00;2.47;;;2.20;;
209;SDS011;90;48.810;9.120;2022-09-09T13:26:29;2.90;;;2.70;;
209;SDS011;90;48.810;9.120;2022-09-09T13:29:07;2.40;;;2.20;;
209;SDS011;90;48.810;9.120;2022-09-09T13:31:43;2.60;;;2.30;;
209;SDS011;90;48.810;9.120;2022-09-09T13:34:11;2.67;;;2.45;;
209;SDS011;90;48.810;9.120;2022-09-09T13:36:41;2.33;;;2.23;;
209;SDS011;90;48.810;9.120;2022-09-09T13:39:15;2.20;;;2.00;;
209;SDS011;90;48.810;9.120;2022-09-09T13:41:45;2.23;;;2.03;;
209;SDS011;90;48.810;9.120;2022-09-09T13:44:17;2.50;;;2.30;;
209;SDS011;90;48.810;9.120;2022-09-09T13:46:58;2.57;;;2.47;;
209;SDS011;90;48.810;9.120;2022-09-09T13:49:28;2.80;;;1.80;;
209;SDS011;90;48.810;9.120;2022-09-09T13:52:09;3.33;;;3.13;;
209;SDS011;90;48.810;9.120;2022-09-09T13:54:38;2.67;;;2.47;;
209;SDS011;90;48.810;9.120;2022-09-09T13:57:13;2.63;;;2.43;;
209;SDS011;90;48.810;9.120;2022-09-09T13:59:43;2.87;;;1.90;;
209;SDS011;90;48.810;9.120;2022-09-09T14:02:11;5.30;;;2.50;;
209;SDS011;90;48.810;9.120;2022-09-09T14:04:39;3.30;;;2.33;;
209;SDS011;90;48.810;9.120;2022-09-09T14:07:10;3.93;;;2.30;;
209;SDS011;90;48.810;9.120;2022-09-09T14:09:39;5.07;;;2.40;;
209;SDS011;90;48.810;9.120;2022-09-09T14:12:08;2.70;;;2.50;;
209;SDS011;90;48.810;9.120;2022-09-09T14:14:40;2.63;;;2.33;;
209;SDS011;90;48.810;9.120;2022-09-09T14:17:08;2.50;;;2.30;;
209;SDS011;90;48.810;9.120;2022-09-09T14:19:35;4.77;;;2.07;;
209;SDS011;90;48.810;9.120;2022-09-09T14:22:03;3.17;;;2.97;;
209;SDS011;90;48.810;9.120;2022-09-09T14:24:32;2.93;;;2.73;;
209;SDS011;90;48.810;9.120;2022-09-09T14:26:59;2.50;;;2.30;;
209;SDS011;90;48.810;9.120;2022-09-09T14:29:26;2.90;;;2.70;;
209;SDS011;90;48.810;9.120;2022-09-09T14:31:54;3.33;;;2.00;;
209;SDS011;90;48.810;9.120;2022-09-09T14:34:21;2.40;;;2.30;;
209;SDS011;90;48.810;9.120;2022-09-09T14:36:48;2.93;;;2.40;;
209;SDS011;90;48.810;9.120;2022-09-09T14:39:18;2.33;;;2.10;;
209;SDS011;90;48.810;9.120;2022-09-09T14:41:49;2.30;;;2.17;;
209;SDS011;90;48.810;9.120;2022-09-09T14:44:18;3.40;;;2.10;;
209;SDS011;90;48.810;9.120;2022-09-09T14:46:47;2.30;;;2.07;;
209;SDS011;90;48.810;9.120;2022-09-09T14:49:15;3.67;;;2.20;;
209;SDS011;90;48.810;9.120;2022-09-09T14:51:42;1.90;;;1.90;;
209;SDS011;90;48.810;9.120;2022-09-09T14:54:10;2.67;;;2.20;;
209;SDS011;90;48.810;9.120;2022-09-09T14:56:37;2.60;;;1.70;;
209;SDS011;90;48.810;9.120;2022-09-09T14:59:06;2.53;;;1.93;;
209;SDS011;90;48.810;9.120;2022-09-09T15:01:34;2.63;;;1.90;;
209;SDS011;90;48.810;9.120;2022-09-09T15:04:02;5.30;;;2.07;;
209;SDS011;90;48.810;9.120;2022-09-09T15:06:31;2.17;;;2.07;;
209;SDS011;90;48.810;9.120;2022-09-09T15:08:59;7.50;;;2.30;;
209;SDS011;90;48.810;9.120;2022-09-09T15:11:30;3.80;;;2.03;;
209;SDS011;90;48.810;9.120;2022-09-09T15:14:02;2.43;;;2.23;;
209;SDS011;90;48.810;9.120;2022-09-09T15:16:31;2.30;;;2.10;;
209;SDS011;90;48.810;9.120;2022-09-09T15:18:59;2.33;;;2.07;;
209;SDS011;90;48.810;9.120;2022-09-09T15:21:28;2.50;;;2.13;;
209;SDS011;90;48.810;9.120;2022-09-09T15:24:00;2.97;;;2.10;;
209;SDS011;90;48.810;9.120;2022-09-09T15:26:29;2.83;;;2.30;;
209;SDS011;90;48.810;9.120;2022-09-09T15:28:57;3.23;;;2.20;;
209;SDS011;90;48.810;9.120;2022-09-09T15:31:28;3.50;;;2.30;;
209;SDS011;90;48.810;9.120;2022-09-09T15:33:59;4.00;;;2.20;;
209;SDS011;90;48.810;9.120;2022-09-09T15:36:28;2.78;;;2.20;;
209;SDS011;90;48.810;9.120;2022-09-09T15:39:00;2.80;;;2.33;;
209;SDS011;90;48.810;9.120;2022-09-09T15:41:28;2.73;;;2.20;;
209;SDS011;90;48.810;9.120;2022-09-09T15:43:57;2.30;;;2.10;;
209;SDS011;90;48.810;9.120;2022-09-09T15:46:28;2.40;;;2.20;;
209;SDS011;90;48.810;9.120;2022-09-09T15:49:03;3.30;;;2.33;;
209;SDS011;90;48.810;9.120;2022-09-09T15:51:34;2.67;;;2.30;;
209;SDS011;90;48.810;9.120;2022-09-09T15:54:03;2.87;;;2.30;;
209;SDS011;90;48.810;9.120;2022-09-09T15:56:42;3.03;;;2.50;;
209;SDS011;90;48.810;9.120;2022-09-09T15:59:11;2.70;;;2.30;;
209;SDS011;90;48.810;9.120;2022-09-09T16:01:42;3.40;;;2.10;;
209;SDS011;90;48.810;9.120;2022-09-09T16:04:12;4.53;;;1.80;;
209;SDS011;90;48.810;9.120;2022-09-09T16:06:44;3.50;;;1.60;;
209;SDS011;90;48.810;9.120;2022-09-09T16:09:13;7.50;;;2.13;;
209;SDS011;90;48.810;9.120;2022-09-09T16:11:44;5.30;;;2.20;;
209;SDS011;90;48.810;9.120;2022-09-09T16:14:27;2.80;;;2.00;;
209;SDS011;90;48.810;9.120;2022-09-09T16:17:05;2.90;;;2.37;;
209;SDS011;90;48.810;9.120;2022-09-09T16:19:34;4.47;;;2.50;;
209;SDS011;90;48.810;9.120;2022-09-09T16:22:03;3.17;;;2.00;;
209;SDS011;90;48.810;9.120;2022-09-09T16:24:32;4.17;;;2.50;;
209;SDS011;90;48.810;9.120;2022-09-09T16:27:01;3.30;;;2.10;;
209;SDS011;90;48.810;9.120;2022-09-09T16:29:29;7.50;;;2.27;;
209;SDS011;90;48.810;9.120;2022-09-09T16:31:57;8.30;;;2.53;;
209;SDS011;90;48.810;9.120;2022-09-09T16:34:28;3.50;;;2.00;;
209;SDS011;90;48.810;9.120;2022-09-09T16:36:56;2.10;;;1.60;;
209;SDS011;90;48.810;9.120;2022-09-09T16:39:23;3.40;;;1.53;;
209;SDS011;90;48.810;9.120;2022-09-09T16:41:50;2.60;;;1.53;;